sensor_id;sensor_type;location;lat;lon;timestamp;temperature;humidity
57030;DHT22;42920;45.306;20.448;2023-12-14T00:01:45;281.70;2278.40
57030;DHT22;42920;45.306;20.448;2023-12-14T00:04:12;281.60;2278.40
57030;DHT22;42920;45.306;20.448;2023-12-14T00:06:37;281.60;2278.40
57030;DHT22;42920;45.306;20.448;2023-12-14T00:09:03;256.90;2252.80
57030;DHT22;42920;45.306;20.448;2023-12-14T00:11:29;281.60;2278.40
57030;DHT22;42920;45.306;20.448;2023-12-14T00:13:55;256.90;2252.80
57030;DHT22;42920;45.306;20.448;2023-12-14T00:16:21;256.90;2252.80
57030;DHT22;42920;45.306;20.448;2023-12-14T00:18:47;256.90;2252.80
57030;DHT22;42920;45.306;20.448;2023-12-14T00:21:16;256.90;2252.80
57030;DHT22;42920;45.306;20.448;2023-12-14T00:23:45;256.90;2252.80
57030;DHT22;42920;45.306;20.448;2023-12-14T00:26:10;256.90;2252.80
57030;DHT22;42920;45.306;20.448;2023-12-14T00:28:36;256.90;2252.80
57030;DHT22;42920;45.306;20.448;2023-12-14T00:31:02;256.80;2252.80
57030;DHT22;42920;45.306;20.448;2023-12-14T00:33:28;256.80;2252.80
57030;DHT22;42920;45.306;20.448;2023-12-14T00:35:53;256.90;2252.80
57030;DHT22;42920;45.306;20.448;2023-12-14T00:38:19;281.60;2278.40
57030;DHT22;42920;45.306;20.448;2023-12-14T00:40:45;256.90;2252.80
57030;DHT22;42920;45.306;20.448;2023-12-14T00:43:10;281.60;2150.40
57030;DHT22;42920;45.306;20.448;2023-12-14T00:45:36;281.60;2278.40
57030;DHT22;42920;45.306;20.448;2023-12-14T00:48:02;256.90;2252.80
57030;DHT22;42920;45.306;20.448;2023-12-14T00:50:27;256.90;2176.00
57030;DHT22;42920;45.306;20.448;2023-12-14T00:52:53;256.90;1996.80
57030;DHT22;42920;45.306;20.448;2023-12-14T00:55:19;256.90;2048.00
57030;DHT22;42920;45.306;20.448;2023-12-14T00:57:44;256.90;2252.80
57030;DHT22;42920;45.306;20.448;2023-12-14T01:00:11;256.90;2150.40
57030;DHT22;42920;45.306;20.448;2023-12-14T01:02:37;281.60;1971.20
57030;DHT22;42920;45.306;20.448;2023-12-14T01:05:03;281.60;2278.40
57030;DHT22;42920;45.306;20.448;2023-12-14T01:07:29;256.90;2252.80
57030;DHT22;42920;45.306;20.448;2023-12-14T01:09:55;281.60;2278.40
57030;DHT22;42920;45.306;20.448;2023-12-14T01:12:20;281.60;2278.40
57030;DHT22;42920;45.306;20.448;2023-12-14T01:14:46;281.60;2278.40
57030;DHT22;42920;45.306;20.448;2023-12-14T01:17:12;256.70;2252.80
57030;DHT22;42920;45.306;20.448;2023-12-14T01:19:40;256.50;2252.80
57030;DHT22;42920;45.306;20.448;2023-12-14T01:22:07;256.40;2252.80
57030;DHT22;42920;45.306;20.448;2023-12-14T01:24:32;256.20;2252.80
57030;DHT22;42920;45.306;20.448;2023-12-14T01:26:58;256.20;2252.80
57030;DHT22;42920;45.306;20.448;2023-12-14T01:29:24;256.10;2252.80
57030;DHT22;42920;45.306;20.448;2023-12-14T01:31:50;256.10;2252.80
57030;DHT22;42920;45.306;20.448;2023-12-14T01:34:15;256.00;2252.80
57030;DHT22;42920;45.306;20.448;2023-12-14T01:36:41;256.00;2252.80
57030;DHT22;42920;45.306;20.448;2023-12-14T01:39:07;256.00;2252.80
57030;DHT22;42920;45.306;20.448;2023-12-14T01:41:33;256.00;2252.80
57030;DHT22;42920;45.306;20.448;2023-12-14T01:43:59;256.30;2252.80
57030;DHT22;42920;45.306;20.448;2023-12-14T01:46:25;256.40;2252.80
57030;DHT22;42920;45.306;20.448;2023-12-14T01:48:50;256.60;2252.80
57030;DHT22;42920;45.306;20.448;2023-12-14T01:51:18;256.60;2252.80
57030;DHT22;42920;45.306;20.448;2023-12-14T01:53:44;256.80;2252.80
57030;DHT22;42920;45.306;20.448;2023-12-14T01:56:10;281.60;2278.40
57030;DHT22;42920;45.306;20.448;2023-12-14T01:58:36;281.70;2278.40
57030;DHT22;42920;45.306;20.448;2023-12-14T02:01:11;281.70;2073.60
57030;DHT22;42920;45.306;20.448;2023-12-14T02:03:50;281.90;2278.40
57030;DHT22;42920;45.306;20.448;2023-12-14T02:06:16;281.70;2278.40
57030;DHT22;42920;45.306;20.448;2023-12-14T02:08:42;281.60;2278.40
57030;DHT22;42920;45.306;20.448;2023-12-14T02:11:07;256.90;2252.80
57030;DHT22;42920;45.306;20.448;2023-12-14T02:13:34;281.60;2278.40
57030;DHT22;42920;45.306;20.448;2023-12-14T02:16:00;281.60;2278.40
57030;DHT22;42920;45.306;20.448;2023-12-14T02:18:25;281.60;2278.40
57030;DHT22;42920;45.306;20.448;2023-12-14T02:20:52;281.60;2278.40
57030;DHT22;42920;45.306;20.448;2023-12-14T02:23:17;256.90;2252.80
57030;DHT22;42920;45.306;20.448;2023-12-14T02:25:43;256.80;2252.80
57030;DHT22;42920;45.306;20.448;2023-12-14T02:28:09;256.80;2252.80
57030;DHT22;42920;45.306;20.448;2023-12-14T02:30:35;256.80;2252.80
57030;DHT22;42920;45.306;20.448;2023-12-14T02:33:00;281.60;2278.40
57030;DHT22;42920;45.306;20.448;2023-12-14T02:35:26;281.70;2278.40
57030;DHT22;42920;45.306;20.448;2023-12-14T02:37:52;281.60;2278.40
57030;DHT22;42920;45.306;20.448;2023-12-14T02:40:18;281.60;2278.40
57030;DHT22;42920;45.306;20.448;2023-12-14T02:42:43;281.60;2278.40
57030;DHT22;42920;45.306;20.448;2023-12-14T02:45:09;256.90;2252.80
57030;DHT22;42920;45.306;20.448;2023-12-14T02:47:35;281.60;2278.40
57030;DHT22;42920;45.306;20.448;2023-12-14T02:50:01;281.60;2278.40
57030;DHT22;42920;45.306;20.448;2023-12-14T02:52:27;281.60;2278.40
57030;DHT22;42920;45.306;20.448;2023-12-14T02:54:53;281.70;2278.40
57030;DHT22;42920;45.306;20.448;2023-12-14T02:57:19;281.70;2278.40
57030;DHT22;42920;45.306;20.448;2023-12-14T02:59:44;281.90;2278.40
57030;DHT22;42920;45.306;20.448;2023-12-14T03:02:10;282.00;2278.40
57030;DHT22;42920;45.306;20.448;2023-12-14T03:04:39;281.90;2278.40
57030;DHT22;42920;45.306;20.448;2023-12-14T03:07:08;281.90;2278.40
57030;DHT22;42920;45.306;20.448;2023-12-14T03:09:33;281.90;2278.40
57030;DHT22;42920;45.306;20.448;2023-12-14T03:12:00;282.00;2278.40
57030;DHT22;42920;45.306;20.448;2023-12-14T03:14:31;282.20;2278.40
57030;DHT22;42920;45.306;20.448;2023-12-14T03:16:56;282.20;2278.40
57030;DHT22;42920;45.306;20.448;2023-12-14T03:19:22;282.10;2278.40
57030;DHT22;42920;45.306;20.448;2023-12-14T03:21:48;282.10;2278.40
57030;DHT22;42920;45.306;20.448;2023-12-14T03:24:14;281.90;2278.40
57030;DHT22;42920;45.306;20.448;2023-12-14T03:26:39;281.80;2278.40
57030;DHT22;42920;45.306;20.448;2023-12-14T03:29:05;281.90;2278.40
57030;DHT22;42920;45.306;20.448;2023-12-14T03:31:31;282.00;2278.40
57030;DHT22;42920;45.306;20.448;2023-12-14T03:33:57;282.00;2278.40
57030;DHT22;42920;45.306;20.448;2023-12-14T03:36:22;282.10;2278.40
57030;DHT22;42920;45.306;20.448;2023-12-14T03:38:51;282.00;2278.40
57030;DHT22;42920;45.306;20.448;2023-12-14T03:41:17;281.70;2278.40
57030;DHT22;42920;45.306;20.448;2023-12-14T03:43:43;256.90;2252.80
57030;DHT22;42920;45.306;20.448;2023-12-14T03:46:09;281.60;2252.80
57030;DHT22;42920;45.306;20.448;2023-12-14T03:48:35;281.70;2022.40
57030;DHT22;42920;45.306;20.448;2023-12-14T03:51:05;281.90;2278.40
57030;DHT22;42920;45.306;20.448;2023-12-14T03:53:31;282.10;2278.40
57030;DHT22;42920;45.306;20.448;2023-12-14T03:56:00;282.20;2278.40
57030;DHT22;42920;45.306;20.448;2023-12-14T03:58:26;282.30;2278.40
57030;DHT22;42920;45.306;20.448;2023-12-14T04:00:52;282.30;2278.40
57030;DHT22;42920;45.306;20.448;2023-12-14T04:03:18;282.20;2278.40
57030;DHT22;42920;45.306;20.448;2023-12-14T04:05:44;282.10;2278.40
57030;DHT22;42920;45.306;20.448;2023-12-14T04:08:09;282.10;2278.40
57030;DHT22;42920;45.306;20.448;2023-12-14T04:10:35;282.20;2278.40
57030;DHT22;42920;45.306;20.448;2023-12-14T04:13:01;282.20;2278.40
57030;DHT22;42920;45.306;20.448;2023-12-14T04:15:27;282.00;2278.40
57030;DHT22;42920;45.306;20.448;2023-12-14T04:17:53;282.00;2278.40
57030;DHT22;42920;45.306;20.448;2023-12-14T04:20:19;282.00;2278.40
57030;DHT22;42920;45.306;20.448;2023-12-14T04:22:45;282.00;2278.40
57030;DHT22;42920;45.306;20.448;2023-12-14T04:25:11;282.00;2278.40
57030;DHT22;42920;45.306;20.448;2023-12-14T04:27:36;281.90;2278.40
57030;DHT22;42920;45.306;20.448;2023-12-14T04:30:02;281.70;2278.40
57030;DHT22;42920;45.306;20.448;2023-12-14T04:32:30;281.60;2278.40
57030;DHT22;42920;45.306;20.448;2023-12-14T04:34:55;256.90;2252.80
57030;DHT22;42920;45.306;20.448;2023-12-14T04:37:21;281.70;2278.40
57030;DHT22;42920;45.306;20.448;2023-12-14T04:39:47;281.60;2278.40
57030;DHT22;42920;45.306;20.448;2023-12-14T04:42:13;281.70;2278.40
57030;DHT22;42920;45.306;20.448;2023-12-14T04:44:38;281.70;2278.40
57030;DHT22;42920;45.306;20.448;2023-12-14T04:47:04;281.70;2278.40
57030;DHT22;42920;45.306;20.448;2023-12-14T04:49:30;281.70;2278.40
57030;DHT22;42920;45.306;20.448;2023-12-14T04:51:56;281.90;2278.40
57030;DHT22;42920;45.306;20.448;2023-12-14T04:54:21;282.00;2278.40
57030;DHT22;42920;45.306;20.448;2023-12-14T04:56:47;282.10;2278.40
57030;DHT22;42920;45.306;20.448;2023-12-14T04:59:13;282.10;2278.40
57030;DHT22;42920;45.306;20.448;2023-12-14T05:01:39;282.20;2278.40
57030;DHT22;42920;45.306;20.448;2023-12-14T05:04:05;282.20;2278.40
57030;DHT22;42920;45.306;20.448;2023-12-14T05:06:30;282.00;2278.40
57030;DHT22;42920;45.306;20.448;2023-12-14T05:08:58;282.10;2278.40
57030;DHT22;42920;45.306;20.448;2023-12-14T05:11:24;282.20;2278.40
57030;DHT22;42920;45.306;20.448;2023-12-14T05:13:50;282.20;2278.40
57030;DHT22;42920;45.306;20.448;2023-12-14T05:16:16;282.10;2278.40
57030;DHT22;42920;45.306;20.448;2023-12-14T05:18:42;282.20;2278.40
57030;DHT22;42920;45.306;20.448;2023-12-14T05:21:08;282.30;2278.40
57030;DHT22;42920;45.306;20.448;2023-12-14T05:23:34;282.30;2278.40
57030;DHT22;42920;45.306;20.448;2023-12-14T05:26:00;282.30;2278.40
57030;DHT22;42920;45.306;20.448;2023-12-14T05:28:25;282.30;2278.40
57030;DHT22;42920;45.306;20.448;2023-12-14T05:30:51;282.40;2278.40
57030;DHT22;42920;45.306;20.448;2023-12-14T05:33:17;282.30;2278.40
57030;DHT22;42920;45.306;20.448;2023-12-14T05:35:43;282.10;2278.40
57030;DHT22;42920;45.306;20.448;2023-12-14T05:38:08;282.10;2278.40
57030;DHT22;42920;45.306;20.448;2023-12-14T05:40:34;282.10;2278.40
57030;DHT22;42920;45.306;20.448;2023-12-14T05:43:00;282.20;2278.40
57030;DHT22;42920;45.306;20.448;2023-12-14T05:45:26;282.20;2278.40
57030;DHT22;42920;45.306;20.448;2023-12-14T05:47:51;282.20;2278.40
57030;DHT22;42920;45.306;20.448;2023-12-14T05:50:17;282.20;2278.40
57030;DHT22;42920;45.306;20.448;2023-12-14T05:52:43;282.10;2278.40
57030;DHT22;42920;45.306;20.448;2023-12-14T05:55:11;282.20;2278.40
57030;DHT22;42920;45.306;20.448;2023-12-14T05:57:37;282.20;2278.40
57030;DHT22;42920;45.306;20.448;2023-12-14T06:00:04;282.30;2278.40
57030;DHT22;42920;45.306;20.448;2023-12-14T06:02:31;282.20;2278.40
57030;DHT22;42920;45.306;20.448;2023-12-14T06:04:58;282.10;2278.40
57030;DHT22;42920;45.306;20.448;2023-12-14T06:07:24;282.20;2278.40
57030;DHT22;42920;45.306;20.448;2023-12-14T06:09:50;282.30;2278.40
57030;DHT22;42920;45.306;20.448;2023-12-14T06:12:16;282.30;2278.40
57030;DHT22;42920;45.306;20.448;2023-12-14T06:14:41;282.10;2278.40
57030;DHT22;42920;45.306;20.448;2023-12-14T06:17:07;282.10;2278.40
57030;DHT22;42920;45.306;20.448;2023-12-14T06:19:33;282.10;2278.40
57030;DHT22;42920;45.306;20.448;2023-12-14T06:21:58;282.20;2278.40
57030;DHT22;42920;45.306;20.448;2023-12-14T06:24:24;282.20;2278.40
57030;DHT22;42920;45.306;20.448;2023-12-14T06:26:50;282.50;2278.40
57030;DHT22;42920;45.306;20.448;2023-12-14T06:29:16;282.30;2278.40
57030;DHT22;42920;45.306;20.448;2023-12-14T06:31:41;282.30;2278.40
57030;DHT22;42920;45.306;20.448;2023-12-14T06:34:07;282.30;2278.40
57030;DHT22;42920;45.306;20.448;2023-12-14T06:36:33;282.40;2278.40
57030;DHT22;42920;45.306;20.448;2023-12-14T06:39:00;282.40;2278.40
57030;DHT22;42920;45.306;20.448;2023-12-14T06:41:27;282.40;2278.40
57030;DHT22;42920;45.306;20.448;2023-12-14T06:43:54;282.40;2227.20
57030;DHT22;42920;45.306;20.448;2023-12-14T06:46:20;282.40;2227.20
57030;DHT22;42920;45.306;20.448;2023-12-14T06:48:47;282.40;2176.00
57030;DHT22;42920;45.306;20.448;2023-12-14T06:51:13;282.40;2278.40
57030;DHT22;42920;45.306;20.448;2023-12-14T06:53:40;282.40;2176.00
57030;DHT22;42920;45.306;20.448;2023-12-14T06:56:07;282.50;2278.40
57030;DHT22;42920;45.306;20.448;2023-12-14T06:58:37;282.40;2099.20
57030;DHT22;42920;45.306;20.448;2023-12-14T07:01:03;282.40;2150.40
57030;DHT22;42920;45.306;20.448;2023-12-14T07:03:28;282.30;1971.20
57030;DHT22;42920;45.306;20.448;2023-12-14T07:05:54;282.30;2124.80
57030;DHT22;42920;45.306;20.448;2023-12-14T07:08:20;282.20;2278.40
57030;DHT22;42920;45.306;20.448;2023-12-14T07:10:46;282.10;2278.40
57030;DHT22;42920;45.306;20.448;2023-12-14T07:13:11;282.20;2278.40
57030;DHT22;42920;45.306;20.448;2023-12-14T07:15:37;282.20;2278.40
57030;DHT22;42920;45.306;20.448;2023-12-14T07:18:03;282.00;2278.40
57030;DHT22;42920;45.306;20.448;2023-12-14T07:20:29;282.00;2278.40
57030;DHT22;42920;45.306;20.448;2023-12-14T07:22:54;282.00;2278.40
57030;DHT22;42920;45.306;20.448;2023-12-14T07:25:20;281.80;2278.40
57030;DHT22;42920;45.306;20.448;2023-12-14T07:27:46;281.80;2278.40
57030;DHT22;42920;45.306;20.448;2023-12-14T07:30:13;281.80;2278.40
57030;DHT22;42920;45.306;20.448;2023-12-14T07:32:38;281.90;2278.40
57030;DHT22;42920;45.306;20.448;2023-12-14T07:35:05;281.80;2278.40
57030;DHT22;42920;45.306;20.448;2023-12-14T07:37:31;281.80;2278.40
57030;DHT22;42920;45.306;20.448;2023-12-14T07:39:56;281.90;2278.40
57030;DHT22;42920;45.306;20.448;2023-12-14T07:42:23;281.80;2278.40
57030;DHT22;42920;45.306;20.448;2023-12-14T07:44:50;281.80;2278.40
57030;DHT22;42920;45.306;20.448;2023-12-14T07:47:15;282.00;2278.40
57030;DHT22;42920;45.306;20.448;2023-12-14T07:49:41;281.90;2278.40
57030;DHT22;42920;45.306;20.448;2023-12-14T07:52:07;281.90;2278.40
57030;DHT22;42920;45.306;20.448;2023-12-14T07:54:33;281.90;2278.40
57030;DHT22;42920;45.306;20.448;2023-12-14T07:56:59;282.00;2278.40
57030;DHT22;42920;45.306;20.448;2023-12-14T07:59:25;282.10;2278.40
57030;DHT22;42920;45.306;20.448;2023-12-14T08:01:50;282.10;2278.40
57030;DHT22;42920;45.306;20.448;2023-12-14T08:04:16;282.20;2278.40
57030;DHT22;42920;45.306;20.448;2023-12-14T08:06:42;282.20;2278.40
57030;DHT22;42920;45.306;20.448;2023-12-14T08:09:08;282.30;2278.40
57030;DHT22;42920;45.306;20.448;2023-12-14T08:11:34;282.30;2278.40
57030;DHT22;42920;45.306;20.448;2023-12-14T08:13:59;282.30;2201.60
57030;DHT22;42920;45.306;20.448;2023-12-14T08:16:26;282.40;2150.40
57030;DHT22;42920;45.306;20.448;2023-12-14T08:18:52;282.40;2022.40
57030;DHT22;42920;45.306;20.448;2023-12-14T08:21:18;282.40;1971.20
57030;DHT22;42920;45.306;20.448;2023-12-14T08:23:44;282.40;2022.40
57030;DHT22;42920;45.306;20.448;2023-12-14T08:26:10;282.50;1920.00
57030;DHT22;42920;45.306;20.448;2023-12-14T08:28:41;282.30;2099.20
57030;DHT22;42920;45.306;20.448;2023-12-14T08:31:08;282.40;2124.80
57030;DHT22;42920;45.306;20.448;2023-12-14T08:33:35;282.50;2048.00
57030;DHT22;42920;45.306;20.448;2023-12-14T08:36:01;282.40;1920.00
57030;DHT22;42920;45.306;20.448;2023-12-14T08:38:26;282.30;1894.40
57030;DHT22;42920;45.306;20.448;2023-12-14T08:40:52;282.30;2022.40
57030;DHT22;42920;45.306;20.448;2023-12-14T08:43:18;282.30;1894.40
57030;DHT22;42920;45.306;20.448;2023-12-14T08:45:44;282.30;2278.40
57030;DHT22;42920;45.306;20.448;2023-12-14T08:48:10;282.30;2278.40
57030;DHT22;42920;45.306;20.448;2023-12-14T08:50:36;282.30;2278.40
57030;DHT22;42920;45.306;20.448;2023-12-14T08:53:01;282.20;2278.40
57030;DHT22;42920;45.306;20.448;2023-12-14T08:55:27;282.30;2278.40
57030;DHT22;42920;45.306;20.448;2023-12-14T08:57:53;282.40;2278.40
57030;DHT22;42920;45.306;20.448;2023-12-14T09:00:19;282.50;2278.40
57030;DHT22;42920;45.306;20.448;2023-12-14T09:02:45;282.40;2176.00
57030;DHT22;42920;45.306;20.448;2023-12-14T09:05:14;282.50;2048.00
57030;DHT22;42920;45.306;20.448;2023-12-14T09:07:41;282.40;2278.40
57030;DHT22;42920;45.306;20.448;2023-12-14T09:10:08;282.40;2278.40
57030;DHT22;42920;45.306;20.448;2023-12-14T09:12:33;282.40;2150.40
57030;DHT22;42920;45.306;20.448;2023-12-14T09:15:00;282.20;2278.40
57030;DHT22;42920;45.306;20.448;2023-12-14T09:17:26;282.20;2278.40
57030;DHT22;42920;45.306;20.448;2023-12-14T09:20:01;282.20;2278.40
57030;DHT22;42920;45.306;20.448;2023-12-14T09:22:30;282.10;2278.40
57030;DHT22;42920;45.306;20.448;2023-12-14T09:24:56;282.10;2278.40
57030;DHT22;42920;45.306;20.448;2023-12-14T09:27:22;282.20;2278.40
57030;DHT22;42920;45.306;20.448;2023-12-14T09:29:48;282.20;2278.40
57030;DHT22;42920;45.306;20.448;2023-12-14T09:32:14;282.20;2278.40
57030;DHT22;42920;45.306;20.448;2023-12-14T09:34:39;282.30;2278.40
57030;DHT22;42920;45.306;20.448;2023-12-14T09:37:05;282.20;2278.40
57030;DHT22;42920;45.306;20.448;2023-12-14T09:39:31;282.30;2278.40
57030;DHT22;42920;45.306;20.448;2023-12-14T09:42:04;282.30;2278.40
57030;DHT22;42920;45.306;20.448;2023-12-14T09:44:31;282.40;2278.40
57030;DHT22;42920;45.306;20.448;2023-12-14T09:47:00;282.40;2278.40
57030;DHT22;42920;45.306;20.448;2023-12-14T09:49:26;282.30;2278.40
57030;DHT22;42920;45.306;20.448;2023-12-14T09:51:58;282.50;2278.40
57030;DHT22;42920;45.306;20.448;2023-12-14T09:54:25;282.50;2278.40
57030;DHT22;42920;45.306;20.448;2023-12-14T09:56:51;282.40;2278.40
57030;DHT22;42920;45.306;20.448;2023-12-14T09:59:18;282.40;2278.40
57030;DHT22;42920;45.306;20.448;2023-12-14T10:01:44;282.50;2278.40
57030;DHT22;42920;45.306;20.448;2023-12-14T10:04:14;282.40;2278.40
57030;DHT22;42920;45.306;20.448;2023-12-14T10:06:42;282.40;2278.40
57030;DHT22;42920;45.306;20.448;2023-12-14T10:09:08;282.20;2278.40
57030;DHT22;42920;45.306;20.448;2023-12-14T10:11:41;282.30;2278.40
57030;DHT22;42920;45.306;20.448;2023-12-14T10:14:22;282.30;2278.40
57030;DHT22;42920;45.306;20.448;2023-12-14T10:16:49;282.40;2278.40
57030;DHT22;42920;45.306;20.448;2023-12-14T10:19:16;282.40;2278.40
57030;DHT22;42920;45.306;20.448;2023-12-14T10:21:43;282.30;2278.40
57030;DHT22;42920;45.306;20.448;2023-12-14T10:24:09;282.30;2278.40
57030;DHT22;42920;45.306;20.448;2023-12-14T10:26:35;282.30;2278.40
57030;DHT22;42920;45.306;20.448;2023-12-14T10:29:01;282.20;2278.40
57030;DHT22;42920;45.306;20.448;2023-12-14T10:31:30;282.20;2278.40
57030;DHT22;42920;45.306;20.448;2023-12-14T10:33:56;282.20;2278.40
57030;DHT22;42920;45.306;20.448;2023-12-14T10:36:25;282.30;2278.40
57030;DHT22;42920;45.306;20.448;2023-12-14T10:38:57;282.30;2278.40
57030;DHT22;42920;45.306;20.448;2023-12-14T10:41:23;282.30;2278.40
57030;DHT22;42920;45.306;20.448;2023-12-14T10:43:53;282.20;2278.40
57030;DHT22;42920;45.306;20.448;2023-12-14T10:46:20;282.20;2278.40
57030;DHT22;42920;45.306;20.448;2023-12-14T10:48:48;282.20;2278.40
57030;DHT22;42920;45.306;20.448;2023-12-14T10:51:15;282.20;2278.40
57030;DHT22;42920;45.306;20.448;2023-12-14T10:53:44;282.30;2278.40
57030;DHT22;42920;45.306;20.448;2023-12-14T10:56:13;282.30;2278.40
57030;DHT22;42920;45.306;20.448;2023-12-14T10:58:47;282.30;2278.40
57030;DHT22;42920;45.306;20.448;2023-12-14T11:01:18;282.30;2278.40
57030;DHT22;42920;45.306;20.448;2023-12-14T11:03:45;282.40;2278.40
57030;DHT22;42920;45.306;20.448;2023-12-14T11:09:01;282.40;2278.40
57030;DHT22;42920;45.306;20.448;2023-12-14T11:11:43;282.50;2278.40
57030;DHT22;42920;45.306;20.448;2023-12-14T11:14:12;282.40;1920.00
57030;DHT22;42920;45.306;20.448;2023-12-14T11:16:44;282.40;2278.40
57030;DHT22;42920;45.306;20.448;2023-12-14T11:19:32;282.40;2278.40
57030;DHT22;42920;45.306;20.448;2023-12-14T11:22:10;282.30;1971.20
57030;DHT22;42920;45.306;20.448;2023-12-14T11:24:41;282.40;2150.40
57030;DHT22;42920;45.306;20.448;2023-12-14T11:27:08;282.50;2278.40
57030;DHT22;42920;45.306;20.448;2023-12-14T11:29:36;282.50;2278.40
57030;DHT22;42920;45.306;20.448;2023-12-14T11:32:02;307.20;2304.00
57030;DHT22;42920;45.306;20.448;2023-12-14T11:34:28;282.50;2278.40
57030;DHT22;42920;45.306;20.448;2023-12-14T11:36:56;282.50;2278.40
57030;DHT22;42920;45.306;20.448;2023-12-14T11:39:22;282.50;1945.60
57030;DHT22;42920;45.306;20.448;2023-12-14T11:42:04;282.40;2278.40
57030;DHT22;42920;45.306;20.448;2023-12-14T11:44:32;282.30;2278.40
57030;DHT22;42920;45.306;20.448;2023-12-14T11:47:02;282.30;2048.00
57030;DHT22;42920;45.306;20.448;2023-12-14T11:49:31;282.20;2278.40
57030;DHT22;42920;45.306;20.448;2023-12-14T11:51:57;282.30;2278.40
57030;DHT22;42920;45.306;20.448;2023-12-14T11:54:31;282.30;1971.20
57030;DHT22;42920;45.306;20.448;2023-12-14T11:56:57;282.30;2278.40
57030;DHT22;42920;45.306;20.448;2023-12-14T11:59:23;282.30;2278.40
57030;DHT22;42920;45.306;20.448;2023-12-14T12:01:59;282.30;2124.80
57030;DHT22;42920;45.306;20.448;2023-12-14T12:04:26;282.50;2278.40
57030;DHT22;42920;45.306;20.448;2023-12-14T12:07:02;282.50;2278.40
57030;DHT22;42920;45.306;20.448;2023-12-14T12:09:38;282.50;2278.40
57030;DHT22;42920;45.306;20.448;2023-12-14T12:12:10;282.50;2278.40
57030;DHT22;42920;45.306;20.448;2023-12-14T12:14:37;307.20;2304.00
57030;DHT22;42920;45.306;20.448;2023-12-14T12:17:04;307.20;2304.00
57030;DHT22;42920;45.306;20.448;2023-12-14T12:19:35;307.20;2304.00
57030;DHT22;42920;45.306;20.448;2023-12-14T12:22:02;282.50;2278.40
57030;DHT22;42920;45.306;20.448;2023-12-14T12:24:28;307.20;2304.00
57030;DHT22;42920;45.306;20.448;2023-12-14T12:26:57;282.50;2278.40
57030;DHT22;42920;45.306;20.448;2023-12-14T12:29:23;307.20;2304.00
57030;DHT22;42920;45.306;20.448;2023-12-14T12:31:49;307.20;2304.00
57030;DHT22;42920;45.306;20.448;2023-12-14T12:34:15;307.30;2304.00
57030;DHT22;42920;45.306;20.448;2023-12-14T12:36:41;307.30;2304.00
57030;DHT22;42920;45.306;20.448;2023-12-14T12:39:07;307.30;2304.00
57030;DHT22;42920;45.306;20.448;2023-12-14T12:41:34;307.30;2304.00
57030;DHT22;42920;45.306;20.448;2023-12-14T12:44:00;307.20;2304.00
57030;DHT22;42920;45.306;20.448;2023-12-14T12:46:37;307.20;2304.00
57030;DHT22;42920;45.306;20.448;2023-12-14T12:49:04;307.20;2304.00
57030;DHT22;42920;45.306;20.448;2023-12-14T12:51:31;307.20;2304.00
57030;DHT22;42920;45.306;20.448;2023-12-14T12:54:00;307.30;2304.00
57030;DHT22;42920;45.306;20.448;2023-12-14T12:56:28;307.20;2304.00
57030;DHT22;42920;45.306;20.448;2023-12-14T12:58:54;282.50;2278.40
57030;DHT22;42920;45.306;20.448;2023-12-14T13:01:21;282.50;2278.40
57030;DHT22;42920;45.306;20.448;2023-12-14T13:03:53;282.40;2278.40
57030;DHT22;42920;45.306;20.448;2023-12-14T13:06:21;282.40;2278.40
57030;DHT22;42920;45.306;20.448;2023-12-14T13:08:46;282.40;2278.40
57030;DHT22;42920;45.306;20.448;2023-12-14T13:11:12;282.30;2278.40
57030;DHT22;42920;45.306;20.448;2023-12-14T13:13:39;282.40;2278.40
57030;DHT22;42920;45.306;20.448;2023-12-14T13:16:05;282.40;2278.40
57030;DHT22;42920;45.306;20.448;2023-12-14T13:18:31;282.20;2278.40
57030;DHT22;42920;45.306;20.448;2023-12-14T13:20:56;282.20;2278.40
57030;DHT22;42920;45.306;20.448;2023-12-14T13:23:23;282.20;2278.40
57030;DHT22;42920;45.306;20.448;2023-12-14T13:25:48;282.20;2278.40
57030;DHT22;42920;45.306;20.448;2023-12-14T13:28:14;282.10;2278.40
57030;DHT22;42920;45.306;20.448;2023-12-14T13:30:40;282.00;2278.40
57030;DHT22;42920;45.306;20.448;2023-12-14T13:33:07;282.20;2278.40
57030;DHT22;42920;45.306;20.448;2023-12-14T13:35:36;282.30;2278.40
57030;DHT22;42920;45.306;20.448;2023-12-14T13:38:01;282.30;2278.40
57030;DHT22;42920;45.306;20.448;2023-12-14T13:40:27;282.20;2278.40
57030;DHT22;42920;45.306;20.448;2023-12-14T13:42:53;282.20;2278.40
57030;DHT22;42920;45.306;20.448;2023-12-14T13:45:19;282.30;2278.40
57030;DHT22;42920;45.306;20.448;2023-12-14T13:47:45;282.30;2278.40
57030;DHT22;42920;45.306;20.448;2023-12-14T13:50:12;282.40;2278.40
57030;DHT22;42920;45.306;20.448;2023-12-14T13:52:38;282.40;2278.40
57030;DHT22;42920;45.306;20.448;2023-12-14T13:55:04;282.40;2278.40
57030;DHT22;42920;45.306;20.448;2023-12-14T13:57:30;282.30;2278.40
57030;DHT22;42920;45.306;20.448;2023-12-14T13:59:56;282.50;2278.40
57030;DHT22;42920;45.306;20.448;2023-12-14T14:02:22;282.40;2278.40
57030;DHT22;42920;45.306;20.448;2023-12-14T14:04:50;282.50;2278.40
57030;DHT22;42920;45.306;20.448;2023-12-14T14:07:17;282.50;2278.40
57030;DHT22;42920;45.306;20.448;2023-12-14T14:09:43;307.20;2304.00
57030;DHT22;42920;45.306;20.448;2023-12-14T14:12:09;282.50;2278.40
57030;DHT22;42920;45.306;20.448;2023-12-14T14:14:35;282.50;2278.40
57030;DHT22;42920;45.306;20.448;2023-12-14T14:17:01;307.20;2304.00
57030;DHT22;42920;45.306;20.448;2023-12-14T14:19:27;282.50;2278.40
57030;DHT22;42920;45.306;20.448;2023-12-14T14:21:53;282.50;2278.40
57030;DHT22;42920;45.306;20.448;2023-12-14T14:24:19;307.20;2304.00
57030;DHT22;42920;45.306;20.448;2023-12-14T14:26:45;307.20;2304.00
57030;DHT22;42920;45.306;20.448;2023-12-14T14:29:10;282.50;2278.40
57030;DHT22;42920;45.306;20.448;2023-12-14T14:31:37;307.20;2304.00
57030;DHT22;42920;45.306;20.448;2023-12-14T14:34:02;307.20;2304.00
57030;DHT22;42920;45.306;20.448;2023-12-14T14:36:31;307.20;2304.00